Time;durP1;ratioP1;P1;durP2;ratioP2;P2;SDS_P1;SDS_P2;PMS_P1;PMS_P2;Temp;Humidity;BMP_temperature;BMP_pressure;BME280_temperature;BME280_humidity;BME280_pressure;Samples;Min_cycle;Max_cycle;Signal;HPM_P1;HPM_P2
2023/01/20 00:00:27;;;;;;;15.88;10.45;;;;;;;;;;5004825;28;20057;-71
2023/01/20 00:02:53;;;;;;;15.15;11.07;;;;;;;;;;4999742;28;20027;-71
2023/01/20 00:05:19;;;;;;;16.30;11.35;;;;;;;;;;5012961;28;21087;-72
2023/01/20 00:07:45;;;;;;;14.52;10.73;;;;;;;;;;5003060;28;20033;-71
2023/01/20 00:10:11;;;;;;;15.73;10.75;;;;;;;;;;5006781;28;20026;-71
2023/01/20 00:12:37;;;;;;;19.30;11.07;;;;;;;;;;5009825;28;20511;-72
2023/01/20 00:15:03;;;;;;;17.63;10.90;;;;;;;;;;4999657;28;20031;-72
2023/01/20 00:17:29;;;;;;;16.33;11.05;;;;;;;;;;5011159;28;20041;-72
2023/01/20 00:19:55;;;;;;;16.05;11.63;;;;;;;;;;4998256;28;20484;-71
2023/01/20 00:22:21;;;;;;;15.05;10.60;;;;;;;;;;4998800;28;20069;-71
2023/01/20 00:24:47;;;;;;;16.98;11.43;;;;;;;;;;5009171;28;20470;-71
2023/01/20 00:27:14;;;;;;;13.70;10.32;;;;;;;;;;4998685;28;20366;-71
2023/01/20 00:29:43;;;;;;;14.35;10.98;;;;;;;;;;5007919;28;20019;-72
2023/01/20 00:32:09;;;;;;;14.95;10.88;;;;;;;;;;5004363;28;20416;-71
2023/01/20 00:34:35;;;;;;;14.43;10.85;;;;;;;;;;5001716;28;20088;-72
2023/01/20 00:37:01;;;;;;;16.85;11.02;;;;;;;;;;5009479;28;20037;-72
2023/01/20 00:39:27;;;;;;;15.10;11.07;;;;;;;;;;4998535;28;20053;-71
2023/01/20 00:41:53;;;;;;;16.15;11.80;;;;;;;;;;5007177;28;20105;-71
2023/01/20 00:44:19;;;;;;;15.63;12.40;;;;;;;;;;5005610;28;20476;-71
2023/01/20 00:46:45;;;;;;;16.98;11.32;;;;;;;;;;4998657;28;20041;-71
2023/01/20 00:49:11;;;;;;;18.17;13.10;;;;;;;;;;5010542;28;20384;-71
2023/01/20 00:51:37;;;;;;;19.92;12.88;;;;;;;;;;4999941;28;20022;-71
2023/01/20 00:54:03;;;;;;;15.43;11.50;;;;;;;;;;5004229;28;20030;-71
2023/01/20 00:56:29;;;;;;;17.40;12.38;;;;;;;;;;5006533;28;20021;-71
2023/01/20 00:58:55;;;;;;;17.95;12.57;;;;;;;;;;5011539;28;20447;-71
2023/01/20 01:01:22;;;;;;;21.55;13.43;;;;;;;;;;4997240;28;20025;-72
2023/01/20 01:03:48;;;;;;;20.13;13.55;;;;;;;;;;4999691;28;20037;-72
2023/01/20 01:06:15;;;;;;;18.05;12.63;;;;;;;;;;5003830;28;20493;-72
2023/01/20 01:08:42;;;;;;;21.10;13.43;;;;;;;;;;5007787;28;20022;-71
2023/01/20 01:11:08;;;;;;;16.80;12.95;;;;;;;;;;4996255;28;20076;-71
2023/01/20 01:13:34;;;;;;;17.35;12.25;;;;;;;;;;5009422;28;20077;-72
2023/01/20 01:16:00;;;;;;;18.08;13.05;;;;;;;;;;5002827;28;20026;-72
2023/01/20 01:18:26;;;;;;;18.08;13.55;;;;;;;;;;5002596;28;20030;-71
2023/01/20 01:20:52;;;;;;;19.15;12.93;;;;;;;;;;5008290;28;20032;-71
2023/01/20 01:23:18;;;;;;;19.48;13.88;;;;;;;;;;4996066;28;20133;-71
2023/01/20 01:25:44;;;;;;;19.98;14.13;;;;;;;;;;5007335;28;20034;-72
2023/01/20 01:28:10;;;;;;;18.02;13.50;;;;;;;;;;5003560;28;20022;-71
2023/01/20 01:30:36;;;;;;;21.88;13.88;;;;;;;;;;5000500;28;20027;-72
2023/01/20 01:33:02;;;;;;;18.40;13.70;;;;;;;;;;5010185;28;20106;-71
2023/01/20 01:35:28;;;;;;;22.20;14.43;;;;;;;;;;4997786;28;20054;-72
2023/01/20 01:37:54;;;;;;;20.95;15.50;;;;;;;;;;5005766;28;20077;-72
2023/01/20 01:40:20;;;;;;;23.73;13.80;;;;;;;;;;5006206;28;20022;-71
2023/01/20 01:42:46;;;;;;;20.15;14.70;;;;;;;;;;5000937;28;20026;-72
2023/01/20 01:45:12;;;;;;;19.90;14.10;;;;;;;;;;5012351;28;20026;-72
2023/01/20 01:47:43;;;;;;;23.70;15.52;;;;;;;;;;5000304;28;20030;-73
2023/01/20 01:50:12;;;;;;;23.30;15.00;;;;;;;;;;5006741;28;20148;-72
2023/01/20 01:52:39;;;;;;;22.73;14.68;;;;;;;;;;5010660;28;20061;-72
2023/01/20 01:55:06;;;;;;;19.65;13.93;;;;;;;;;;4998110;28;20026;-72
2023/01/20 01:57:32;;;;;;;21.60;15.70;;;;;;;;;;5012083;28;20107;-71
2023/01/20 01:59:58;;;;;;;21.77;14.38;;;;;;;;;;5004910;28;20061;-71
2023/01/20 02:02:24;;;;;;;25.73;15.98;;;;;;;;;;4996758;28;20031;-69
2023/01/20 02:04:50;;;;;;;22.63;15.00;;;;;;;;;;5009180;28;20030;-70
2023/01/20 02:07:19;;;;;;;26.95;15.18;;;;;;;;;;4995872;28;20036;-70
2023/01/20 02:09:45;;;;;;;27.92;16.38;;;;;;;;;;5008616;28;20178;-69
2023/01/20 02:12:13;;;;;;;26.23;16.02;;;;;;;;;;5003883;28;20018;-70
2023/01/20 02:14:43;;;;;;;28.00;16.92;;;;;;;;;;4999550;28;20019;-69
2023/01/20 02:17:21;;;;;;;25.23;16.77;;;;;;;;;;5009812;28;20037;-72
2023/01/20 02:20:05;;;;;;;25.90;16.40;;;;;;;;;;4999747;28;20084;-71
2023/01/20 02:22:34;;;;;;;26.45;16.73;;;;;;;;;;4999958;28;20069;-71
2023/01/20 02:25:03;;;;;;;23.73;16.00;;;;;;;;;;5009078;28;20032;-71
2023/01/20 02:27:40;;;;;;;25.08;16.98;;;;;;;;;;4995259;28;20040;-71
2023/01/20 02:30:21;;;;;;;26.88;17.60;;;;;;;;;;5003475;28;20560;-71
2023/01/20 02:32:52;;;;;;;27.50;17.50;;;;;;;;;;5007501;28;20290;-71
2023/01/20 02:35:25;;;;;;;29.50;18.08;;;;;;;;;;4994828;28;20023;-72
2023/01/20 02:38:09;;;;;;;29.38;18.65;;;;;;;;;;5004907;28;20441;-72
2023/01/20 02:40:48;;;;;;;27.90;18.10;;;;;;;;;;5005724;28;20037;-71
2023/01/20 02:43:17;;;;;;;27.38;18.33;;;;;;;;;;4996064;28;20054;-72
2023/01/20 02:45:47;;;;;;;28.60;19.10;;;;;;;;;;5006161;28;20019;-69
2023/01/20 02:48:42;;;;;;;30.52;20.27;;;;;;;;;;5002607;28;20022;-70
2023/01/20 02:51:11;;;;;;;32.47;19.75;;;;;;;;;;4994475;28;20031;-71
2023/01/20 02:53:40;;;;;;;27.17;19.20;;;;;;;;;;5007042;28;20019;-73
2023/01/20 02:56:06;;;;;;;30.00;19.52;;;;;;;;;;5001578;28;20038;-70
2023/01/20 02:58:36;;;;;;;30.50;20.35;;;;;;;;;;5019088;22;20047;-76
2023/01/20 03:01:05;;;;;;;31.40;20.30;;;;;;;;;;5010306;28;20022;-75
2023/01/20 03:03:37;;;;;;;34.72;21.77;;;;;;;;;;4999755;28;20101;-75
2023/01/20 03:06:05;;;;;;;31.50;20.30;;;;;;;;;;5006281;28;20027;-76
2023/01/20 03:08:32;;;;;;;28.35;19.05;;;;;;;;;;5007619;28;20538;-76
2023/01/20 03:11:01;;;;;;;31.77;20.02;;;;;;;;;;4997936;28;20027;-75
2023/01/20 03:13:35;;;;;;;33.63;21.42;;;;;;;;;;4982096;28;20076;-72
2023/01/20 03:16:04;;;;;;;29.70;19.52;;;;;;;;;;5004973;28;20030;-75
2023/01/20 03:18:30;;;;;;;28.42;18.80;;;;;;;;;;5005028;28;20104;-75
2023/01/20 03:20:58;;;;;;;31.83;18.92;;;;;;;;;;4996067;28;20030;-75
2023/01/20 03:23:25;;;;;;;28.70;19.08;;;;;;;;;;5007389;28;20109;-75
2023/01/20 03:25:51;;;;;;;36.10;19.85;;;;;;;;;;4999788;28;20029;-76
2023/01/20 03:28:17;;;;;;;32.28;19.77;;;;;;;;;;5001089;28;20023;-75
2023/01/20 03:30:43;;;;;;;29.50;18.88;;;;;;;;;;5004819;28;20030;-75
2023/01/20 03:33:10;;;;;;;28.38;20.08;;;;;;;;;;4995333;28;20392;-75
2023/01/20 03:35:36;;;;;;;29.88;20.83;;;;;;;;;;5006890;28;20026;-75
2023/01/20 03:38:02;;;;;;;29.50;19.00;;;;;;;;;;5000379;28;20041;-76
2023/01/20 03:40:30;;;;;;;34.03;19.95;;;;;;;;;;4999593;28;20409;-76
2023/01/20 03:43:01;;;;;;;30.05;19.67;;;;;;;;;;5007780;28;20097;-76
2023/01/20 03:45:27;;;;;;;;;;;;;;;;;;4980867;28;20021;-76
2023/01/20 03:47:57;;;;;;;31.10;18.45;;;;;;;;;;5004108;28;19906;-75
2023/01/20 03:50:30;;;;;;;27.95;19.00;;;;;;;;;;5003563;28;20511;-76
2023/01/20 03:53:02;;;;;;;32.53;20.27;;;;;;;;;;4995606;28;20110;-74
2023/01/20 03:55:31;;;;;;;28.88;20.08;;;;;;;;;;4980354;28;20036;-76
2023/01/20 03:58:02;;;;;;;38.35;21.90;;;;;;;;;;5008579;28;20492;-75
2023/01/20 04:00:29;;;;;;;36.50;22.00;;;;;;;;;;4999769;28;20026;-76
2023/01/20 04:02:57;;;;;;;34.10;22.58;;;;;;;;;;5006311;28;20034;-75
2023/01/20 04:05:23;;;;;;;35.08;21.65;;;;;;;;;;4995010;28;20064;-76
2023/01/20 04:07:49;;;;;;;36.10;22.10;;;;;;;;;;5002964;28;20056;-75
2023/01/20 04:10:17;;;;;;;31.70;21.05;;;;;;;;;;5002529;28;20026;-75
2023/01/20 04:12:43;;;;;;;35.95;20.55;;;;;;;;;;4997587;28;20041;-74
2023/01/20 04:15:10;;;;;;;38.03;22.27;;;;;;;;;;5008234;28;20022;-75
2023/01/20 04:17:36;;;;;;;38.35;24.77;;;;;;;;;;4996674;28;20018;-73
2023/01/20 04:20:07;;;;;;;37.17;23.10;;;;;;;;;;5004828;28;20027;-75
2023/01/20 04:22:42;;;;;;;36.42;21.92;;;;;;;;;;5006496;28;20057;-75
2023/01/20 04:25:20;;;;;;;36.42;23.08;;;;;;;;;;4996975;28;20497;-75
2023/01/20 04:27:46;;;;;;;42.83;23.60;;;;;;;;;;5006552;28;20033;-75
2023/01/20 04:30:13;;;;;;;41.50;23.17;;;;;;;;;;5002511;28;20018;-74
2023/01/20 04:32:39;;;;;;;34.50;22.95;;;;;;;;;;4997662;28;20027;-73
2023/01/20 04:35:05;;;;;;;35.25;21.63;;;;;;;;;;5007924;28;20034;-75
2023/01/20 04:37:31;;;;;;;38.30;23.48;;;;;;;;;;4994200;28;20026;-75
2023/01/20 04:39:57;;;;;;;37.17;22.50;;;;;;;;;;5003184;28;20098;-76
2023/01/20 04:42:23;;;;;;;41.67;23.65;;;;;;;;;;5002661;28;20022;-75
2023/01/20 04:44:49;;;;;;;35.50;22.38;;;;;;;;;;4998410;28;20081;-76
2023/01/20 04:47:15;;;;;;;40.80;24.30;;;;;;;;;;5010525;28;20037;-74
2023/01/20 04:49:41;;;;;;;40.35;24.00;;;;;;;;;;5000718;28;20060;-73
2023/01/20 04:52:07;;;;;;;35.13;22.00;;;;;;;;;;5005343;28;20030;-75
2023/01/20 04:54:33;;;;;;;37.60;23.65;;;;;;;;;;5006081;28;20022;-76
2023/01/20 04:56:59;;;;;;;37.47;23.85;;;;;;;;;;4996569;28;20401;-76
2023/01/20 04:59:25;;;;;;;38.97;23.55;;;;;;;;;;5008985;28;20033;-74
2023/01/20 05:01:51;;;;;;;40.60;24.17;;;;;;;;;;4997101;28;20029;-77
2023/01/20 05:04:17;;;;;;;38.80;23.63;;;;;;;;;;5005391;28;20022;-75
2023/01/20 05:06:43;;;;;;;42.60;23.85;;;;;;;;;;4999887;28;20503;-73
2023/01/20 05:09:14;;;;;;;41.08;24.85;;;;;;;;;;5009125;28;20026;-76
2023/01/20 05:11:40;;;;;;;41.70;24.63;;;;;;;;;;4999876;28;20113;-74
2023/01/20 05:14:06;;;;;;;46.92;25.30;;;;;;;;;;5003609;28;20293;-75
2023/01/20 05:16:32;;;;;;;44.05;25.00;;;;;;;;;;4994291;28;20041;-76
2023/01/20 05:18:59;;;;;;;41.72;23.50;;;;;;;;;;5008699;28;20109;-75
2023/01/20 05:21:25;;;;;;;45.90;26.38;;;;;;;;;;4981746;28;20025;-76
2023/01/20 05:23:54;;;;;;;41.42;23.98;;;;;;;;;;5006835;28;20113;-74
2023/01/20 05:26:22;;;;;;;43.53;26.58;;;;;;;;;;5004965;28;20018;-75
2023/01/20 05:28:48;;;;;;;41.50;24.15;;;;;;;;;;4997243;28;20037;-75
2023/01/20 05:31:14;;;;;;;43.67;24.90;;;;;;;;;;5010677;28;20106;-76
2023/01/20 05:33:40;;;;;;;49.33;25.55;;;;;;;;;;4999724;28;20101;-75
2023/01/20 05:36:07;;;;;;;46.80;26.00;;;;;;;;;;5004345;28;20054;-74
2023/01/20 05:38:33;;;;;;;46.88;26.20;;;;;;;;;;5006468;28;20026;-75
2023/01/20 05:41:02;;;;;;;46.05;26.30;;;;;;;;;;4997429;28;20039;-78
2023/01/20 05:43:28;;;;;;;42.60;26.90;;;;;;;;;;4982290;28;20085;-76
2023/01/20 05:45:54;;;;;;;49.97;26.50;;;;;;;;;;5005879;28;20034;-75
2023/01/20 05:48:20;;;;;;;46.25;26.77;;;;;;;;;;5004315;28;20029;-74
2023/01/20 05:50:47;;;;;;;51.70;28.55;;;;;;;;;;4997643;28;20029;-75
2023/01/20 05:53:13;;;;;;;54.95;29.90;;;;;;;;;;5009855;28;20091;-75
2023/01/20 05:55:39;;;;;;;59.33;31.85;;;;;;;;;;4998181;28;20026;-75
2023/01/20 05:58:05;;;;;;;61.17;32.45;;;;;;;;;;5011621;28;20033;-74
2023/01/20 06:00:31;;;;;;;51.80;30.35;;;;;;;;;;4999461;28;20334;-74
2023/01/20 06:02:57;;;;;;;44.63;26.10;;;;;;;;;;4994786;28;20022;-74
2023/01/20 06:05:24;;;;;;;49.28;27.10;;;;;;;;;;5010088;28;20488;-74
2023/01/20 06:07:50;;;;;;;42.10;25.52;;;;;;;;;;4996884;28;20037;-76
2023/01/20 06:10:16;;;;;;;44.67;26.15;;;;;;;;;;4991940;28;20022;-77
2023/01/20 06:12:42;;;;;;;51.97;27.50;;;;;;;;;;5005856;28;20034;-75
2023/01/20 06:15:09;;;;;;;43.85;26.13;;;;;;;;;;4996477;28;20022;-75
2023/01/20 06:17:35;;;;;;;41.13;25.83;;;;;;;;;;5007652;28;20022;-75
2023/01/20 06:20:03;;;;;;;47.40;26.38;;;;;;;;;;5001297;28;20030;-74
2023/01/20 06:22:29;;;;;;;41.28;24.23;;;;;;;;;;4999384;28;20101;-75
2023/01/20 06:24:55;;;;;;;48.22;26.15;;;;;;;;;;4998523;28;20030;-75
2023/01/20 06:27:21;;;;;;;47.20;26.98;;;;;;;;;;4995315;28;20479;-73
2023/01/20 06:29:49;;;;;;;42.47;24.75;;;;;;;;;;5005930;28;20023;-76
2023/01/20 06:32:15;;;;;;;40.08;23.23;;;;;;;;;;5003167;28;20377;-75
2023/01/20 06:34:41;;;;;;;43.60;25.13;;;;;;;;;;4998392;28;20440;-73
2023/01/20 06:37:07;;;;;;;49.00;25.23;;;;;;;;;;5008586;28;20022;-74
2023/01/20 06:39:33;;;;;;;45.58;25.58;;;;;;;;;;4997363;28;20029;-76
2023/01/20 06:42:00;;;;;;;43.05;25.23;;;;;;;;;;5003054;28;20068;-76
2023/01/20 06:44:26;;;;;;;53.20;27.33;;;;;;;;;;4996944;28;20027;-75
2023/01/20 06:46:53;;;;;;;41.30;23.38;;;;;;;;;;4992483;28;20065;-75
2023/01/20 06:49:19;;;;;;;49.42;25.48;;;;;;;;;;4995045;28;20103;-76
2023/01/20 06:51:46;;;;;;;42.70;24.00;;;;;;;;;;5006498;28;20424;-76
2023/01/20 06:54:12;;;;;;;50.15;25.88;;;;;;;;;;5002563;28;20093;-75
2023/01/20 06:56:38;;;;;;;45.17;25.00;;;;;;;;;;4998743;28;20031;-73
2023/01/20 06:59:04;;;;;;;52.95;26.52;;;;;;;;;;5006027;28;20037;-75
2023/01/20 07:01:31;;;;;;;52.33;26.00;;;;;;;;;;4995053;28;20057;-74
2023/01/20 07:03:57;;;;;;;46.15;25.27;;;;;;;;;;5000003;28;20424;-74
2023/01/20 07:06:26;;;;;;;54.55;27.20;;;;;;;;;;5000366;28;20033;-75
2023/01/20 07:08:52;;;;;;;48.17;24.98;;;;;;;;;;5007328;28;20073;-74
2023/01/20 07:11:18;;;;;;;48.95;26.23;;;;;;;;;;4995684;28;20022;-74
2023/01/20 07:13:44;;;;;;;59.75;27.58;;;;;;;;;;5005812;28;20026;-74
2023/01/20 07:16:10;;;;;;;51.40;26.92;;;;;;;;;;5001549;28;20034;-74
2023/01/20 07:18:36;;;;;;;58.20;28.02;;;;;;;;;;4998181;28;20022;-74
2023/01/20 07:21:03;;;;;;;56.92;28.25;;;;;;;;;;5008536;28;20113;-73
2023/01/20 07:23:31;;;;;;;61.28;28.33;;;;;;;;;;4996456;28;20338;-73
2023/01/20 07:26:04;;;;;;;59.70;29.40;;;;;;;;;;5004128;28;20037;-76
2023/01/20 07:28:31;;;;;;;61.35;28.05;;;;;;;;;;5004375;28;20089;-74
2023/01/20 07:31:16;;;;;;;58.25;27.30;;;;;;;;;;4995538;28;20452;-74
2023/01/20 07:33:42;;;;;;;53.60;25.75;;;;;;;;;;4983707;28;20402;-74
2023/01/20 07:36:09;;;;;;;60.95;27.45;;;;;;;;;;5001638;28;20038;-75
2023/01/20 07:38:35;;;;;;;58.88;28.02;;;;;;;;;;5004315;28;20100;-75
2023/01/20 07:41:03;;;;;;;63.72;29.35;;;;;;;;;;4995485;28;20580;-73
2023/01/20 07:43:29;;;;;;;58.22;27.80;;;;;;;;;;5007509;28;20026;-74
2023/01/20 07:45:56;;;;;;;60.22;28.35;;;;;;;;;;4999509;28;20038;-74
2023/01/20 07:48:22;;;;;;;60.97;28.77;;;;;;;;;;4998568;28;20022;-74
2023/01/20 07:50:48;;;;;;;61.35;29.50;;;;;;;;;;5006888;28;20022;-75
2023/01/20 07:53:14;;;;;;;68.68;30.25;;;;;;;;;;4998298;28;20069;-75
2023/01/20 07:55:40;;;;;;;57.03;29.02;;;;;;;;;;5012491;28;20069;-74
2023/01/20 07:58:06;;;;;;;62.38;29.48;;;;;;;;;;4997910;28;20042;-75
2023/01/20 08:00:32;;;;;;;65.57;30.10;;;;;;;;;;5008260;28;20392;-74
2023/01/20 08:02:58;;;;;;;57.97;27.88;;;;;;;;;;4995422;28;20022;-75
2023/01/20 08:05:24;;;;;;;60.78;29.20;;;;;;;;;;5007793;28;20029;-75
2023/01/20 08:07:53;;;;;;;66.38;30.75;;;;;;;;;;4998447;28;20109;-72
2023/01/20 08:10:19;;;;;;;64.32;28.83;;;;;;;;;;5000476;28;20026;-75
2023/01/20 08:12:45;;;;;;;65.82;30.05;;;;;;;;;;5006548;28;20113;-74
2023/01/20 08:15:11;;;;;;;60.78;28.88;;;;;;;;;;4994002;28;20085;-74
2023/01/20 08:17:37;;;;;;;67.45;32.30;;;;;;;;;;5004768;28;20042;-73
2023/01/20 08:20:03;;;;;;;60.90;30.45;;;;;;;;;;5002837;28;20026;-72
2023/01/20 08:22:29;;;;;;;69.40;30.88;;;;;;;;;;5002670;28;20109;-72
2023/01/20 08:24:55;;;;;;;66.65;29.67;;;;;;;;;;5010577;28;20580;-72
2023/01/20 08:27:21;;;;;;;60.67;30.10;;;;;;;;;;4998268;28;20084;-73
2023/01/20 08:29:47;;;;;;;61.55;31.23;;;;;;;;;;5006805;28;20022;-73
2023/01/20 08:32:13;;;;;;;67.75;31.27;;;;;;;;;;5005123;28;20061;-74
2023/01/20 08:34:39;;;;;;;61.33;29.33;;;;;;;;;;5001096;28;20030;-77
2023/01/20 08:37:06;;;;;;;59.13;29.63;;;;;;;;;;5009801;28;20507;-72
2023/01/20 08:39:32;;;;;;;57.53;29.00;;;;;;;;;;4999555;28;20022;-73
2023/01/20 08:41:58;;;;;;;54.80;29.83;;;;;;;;;;5006715;28;20481;-72
2023/01/20 08:44:24;;;;;;;62.05;28.33;;;;;;;;;;5002039;28;20031;-72
2023/01/20 08:46:53;;;;;;;61.67;28.33;;;;;;;;;;4995102;28;20026;-70
2023/01/20 08:49:21;;;;;;;59.90;28.80;;;;;;;;;;5010567;28;20049;-73
2023/01/20 08:51:47;;;;;;;64.05;29.25;;;;;;;;;;5001693;28;20097;-73
2023/01/20 08:54:14;;;;;;;65.47;29.55;;;;;;;;;;5003109;28;20074;-72
2023/01/20 08:56:39;;;;;;;54.05;28.52;;;;;;;;;;5008094;28;20097;-72
2023/01/20 08:59:06;;;;;;;56.70;29.48;;;;;;;;;;5011178;23;20062;-71
2023/01/20 09:01:34;;;;;;;58.03;29.20;;;;;;;;;;4993758;28;20029;-71
2023/01/20 09:04:01;;;;;;;54.40;27.45;;;;;;;;;;4993005;28;20424;-71
2023/01/20 09:06:27;;;;;;;50.78;26.45;;;;;;;;;;4992998;28;20035;-72
2023/01/20 09:08:53;;;;;;;53.88;27.25;;;;;;;;;;4993538;28;20025;-73
2023/01/20 09:11:21;;;;;;;57.08;26.80;;;;;;;;;;4992576;28;20054;-72
2023/01/20 09:13:47;;;;;;;48.42;25.38;;;;;;;;;;4992121;28;20400;-72
2023/01/20 09:16:14;;;;;;;58.20;27.00;;;;;;;;;;4993243;28;20026;-72
2023/01/20 09:18:40;;;;;;;54.70;27.55;;;;;;;;;;4994594;28;20022;-73
2023/01/20 09:21:07;;;;;;;53.85;26.60;;;;;;;;;;4993079;28;20476;-73
2023/01/20 09:23:37;;;;;;;49.92;27.85;;;;;;;;;;4996700;28;20034;-73
2023/01/20 09:26:04;;;;;;;35.38;19.40;;;;;;;;;;4995699;28;20034;-72
2023/01/20 09:28:30;;;;;;;47.78;25.20;;;;;;;;;;4993912;28;20050;-73
2023/01/20 09:31:04;;;;;;;45.38;25.08;;;;;;;;;;4987754;28;20034;-71
2023/01/20 09:33:31;;;;;;;46.88;25.63;;;;;;;;;;4978613;28;20065;-72
2023/01/20 09:35:57;;;;;;;44.88;24.90;;;;;;;;;;4993950;28;20019;-71
2023/01/20 09:43:57;;;;;;;50.03;26.55;;;;;;;;;;4993907;28;20085;-72
2023/01/20 09:46:37;;;;;;;50.15;25.17;;;;;;;;;;4992562;28;20032;-72
2023/01/20 09:54:43;;;;;;;46.22;25.02;;;;;;;;;;4993774;28;20088;-72
2023/01/20 09:57:10;;;;;;;49.00;25.90;;;;;;;;;;4993131;28;20034;-72
2023/01/20 09:59:40;;;;;;;45.88;25.45;;;;;;;;;;4993470;28;20085;-73
2023/01/20 10:02:11;;;;;;;54.28;23.40;;;;;;;;;;4993649;28;20034;-71
2023/01/20 10:04:40;;;;;;;38.78;22.58;;;;;;;;;;4993783;28;20034;-72
2023/01/20 10:07:15;;;;;;;46.17;26.15;;;;;;;;;;4993261;28;20373;-70
2023/01/20 10:09:44;;;;;;;43.83;24.42;;;;;;;;;;4993903;28;20338;-73
2023/01/20 10:12:14;;;;;;;43.65;24.27;;;;;;;;;;4990185;28;20109;-72
2023/01/20 10:14:45;;;;;;;38.78;22.60;;;;;;;;;;4993187;28;20194;-72
2023/01/20 10:17:23;;;;;;;45.47;20.67;;;;;;;;;;4993354;28;20034;-71
2023/01/20 10:19:57;;;;;;;48.17;23.77;;;;;;;;;;4993021;28;20026;-72
2023/01/20 10:22:31;;;;;;;41.50;23.10;;;;;;;;;;4992609;28;20028;-72
2023/01/20 10:25:04;;;;;;;40.38;22.60;;;;;;;;;;4993175;28;20121;-72
2023/01/20 10:27:30;;;;;;;37.15;21.90;;;;;;;;;;4977402;28;20497;-72
2023/01/20 10:30:00;;;;;;;42.97;23.00;;;;;;;;;;4993162;28;20030;-72
2023/01/20 10:32:32;;;;;;;41.00;23.05;;;;;;;;;;4992989;28;20507;-72
2023/01/20 10:35:00;;;;;;;42.80;23.05;;;;;;;;;;4993086;28;20027;-72
2023/01/20 10:37:26;;;;;;;39.83;23.33;;;;;;;;;;4976718;28;20058;-72
2023/01/20 10:40:02;;;;;;;41.80;21.77;;;;;;;;;;4992892;28;20027;-72
2023/01/20 10:42:28;;;;;;;42.00;22.40;;;;;;;;;;4992258;28;20038;-71
2023/01/20 10:44:55;;;;;;;40.70;23.27;;;;;;;;;;4992755;28;20030;-72
2023/01/20 10:47:24;;;;;;;45.10;23.75;;;;;;;;;;4990812;28;20027;-73
2023/01/20 10:49:57;;;;;;;41.63;23.05;;;;;;;;;;4992630;28;20018;-72
2023/01/20 10:52:33;;;;;;;38.78;22.88;;;;;;;;;;4991616;28;20030;-72
2023/01/20 10:55:05;;;;;;;48.50;23.90;;;;;;;;;;4982151;28;20027;-73
2023/01/20 10:57:32;;;;;;;39.33;21.27;;;;;;;;;;4992078;28;20552;-73
2023/01/20 11:00:06;;;;;;;39.30;20.38;;;;;;;;;;4992550;28;20061;-72
2023/01/20 11:02:36;;;;;;;39.63;21.10;;;;;;;;;;4992544;28;20037;-72
2023/01/20 11:05:09;;;;;;;43.88;21.20;;;;;;;;;;4992631;28;20045;-72
2023/01/20 11:07:35;;;;;;;35.40;19.92;;;;;;;;;;4991857;28;20471;-72
2023/01/20 11:10:18;;;;;;;34.97;21.60;;;;;;;;;;4992039;28;20481;-73
2023/01/20 11:12:45;;;;;;;39.42;21.40;;;;;;;;;;4992158;28;20027;-72
2023/01/20 11:15:31;;;;;;;39.65;22.13;;;;;;;;;;4992122;28;20046;-73
2023/01/20 11:18:15;;;;;;;39.17;21.02;;;;;;;;;;4991985;28;20026;-73
2023/01/20 11:20:52;;;;;;;40.38;21.60;;;;;;;;;;4992234;28;20026;-73
2023/01/20 11:23:29;;;;;;;44.58;22.65;;;;;;;;;;4991907;28;20034;-73
2023/01/20 11:25:59;;;;;;;42.85;23.13;;;;;;;;;;4992100;28;20033;-73
2023/01/20 11:28:25;;;;;;;44.28;23.80;;;;;;;;;;4991620;28;20106;-72
2023/01/20 11:30:55;;;;;;;48.28;23.70;;;;;;;;;;4991759;28;20037;-73
2023/01/20 11:33:21;;;;;;;55.53;23.95;;;;;;;;;;4991954;28;20042;-73
2023/01/20 11:35:57;;;;;;;42.35;22.48;;;;;;;;;;4990499;28;20121;-73
2023/01/20 11:38:24;;;;;;;42.22;24.33;;;;;;;;;;4991684;28;20038;-74
2023/01/20 11:40:55;;;;;;;41.67;23.20;;;;;;;;;;4992064;28;20018;-75
2023/01/20 11:43:36;;;;;;;39.60;23.98;;;;;;;;;;4991895;28;20065;-72
2023/01/20 11:46:15;;;;;;;42.25;23.35;;;;;;;;;;4990240;28;20102;-73
2023/01/20 11:48:41;;;;;;;43.13;24.60;;;;;;;;;;4990099;28;20109;-75
2023/01/20 11:51:16;;;;;;;43.85;24.35;;;;;;;;;;4982524;28;20389;-74
2023/01/20 11:53:44;;;;;;;44.90;24.35;;;;;;;;;;4991391;28;20388;-72
2023/01/20 11:56:18;;;;;;;43.88;26.67;;;;;;;;;;4995031;28;20054;-73
2023/01/20 11:58:56;;;;;;;41.08;23.92;;;;;;;;;;4993246;28;20069;-72
2023/01/20 12:01:27;;;;;;;52.10;24.88;;;;;;;;;;4992656;28;20447;-72
2023/01/20 12:03:53;;;;;;;50.63;26.38;;;;;;;;;;4977099;28;20049;-73
2023/01/20 12:06:30;;;;;;;50.10;25.88;;;;;;;;;;4993713;28;20030;-72
2023/01/20 12:09:02;;;;;;;41.03;23.42;;;;;;;;;;4991820;28;20034;-73
2023/01/20 12:11:38;;;;;;;45.30;23.00;;;;;;;;;;4993555;28;20053;-74
2023/01/20 12:14:19;;;;;;;39.72;23.45;;;;;;;;;;4989983;28;20050;-73
2023/01/20 12:16:47;;;;;;;45.30;25.20;;;;;;;;;;4986965;28;20045;-72
2023/01/20 12:19:15;;;;;;;42.67;25.20;;;;;;;;;;4994799;28;20515;-74
2023/01/20 12:21:43;;;;;;;43.40;24.52;;;;;;;;;;4993819;28;20026;-72
2023/01/20 12:24:15;;;;;;;47.83;24.95;;;;;;;;;;4996618;28;20038;-74
2023/01/20 12:26:42;;;;;;;42.90;24.80;;;;;;;;;;5005488;28;20033;-72
2023/01/20 12:29:30;;;;;;;44.53;25.35;;;;;;;;;;4996073;28;20026;-72
2023/01/20 12:31:57;;;;;;;45.38;26.52;;;;;;;;;;4980089;28;20037;-74
2023/01/20 12:34:26;;;;;;;43.10;25.05;;;;;;;;;;4995041;28;20030;-73
2023/01/20 12:37:02;;;;;;;44.90;25.65;;;;;;;;;;4994765;28;20399;-73
2023/01/20 12:39:33;;;;;;;43.28;24.95;;;;;;;;;;4994928;28;20022;-73
2023/01/20 12:41:59;;;;;;;41.45;23.85;;;;;;;;;;4994926;28;20534;-73
2023/01/20 12:44:42;;;;;;;44.22;26.05;;;;;;;;;;4993381;28;20026;-72
2023/01/20 12:47:08;;;;;;;49.92;26.17;;;;;;;;;;4993117;28;20550;-73
2023/01/20 12:49:34;;;;;;;52.47;26.55;;;;;;;;;;4993176;28;20030;-73
2023/01/20 12:52:19;;;;;;;48.17;26.23;;;;;;;;;;4994552;28;20030;-72
2023/01/20 12:55:03;;;;;;;45.35;27.23;;;;;;;;;;4994619;28;20027;-71
2023/01/20 12:57:43;;;;;;;48.35;26.23;;;;;;;;;;4994323;28;20033;-72
2023/01/20 13:00:35;;;;;;;47.20;26.55;;;;;;;;;;4994687;28;20026;-72
2023/01/20 13:03:07;;;;;;;48.08;26.00;;;;;;;;;;4992314;28;20073;-73
2023/01/20 13:05:54;;;;;;;42.45;24.20;;;;;;;;;;4994183;28;20030;-73
2023/01/20 13:08:20;;;;;;;45.47;25.13;;;;;;;;;;4993751;28;20034;-74
2023/01/20 13:10:51;;;;;;;47.88;26.10;;;;;;;;;;4993703;28;20088;-74
2023/01/20 13:13:17;;;;;;;45.78;25.48;;;;;;;;;;4992902;28;20594;-74
2023/01/20 13:16:03;;;;;;;49.22;26.98;;;;;;;;;;4993884;28;20030;-73
2023/01/20 13:18:42;;;;;;;43.50;26.33;;;;;;;;;;4994344;28;20026;-74
2023/01/20 13:21:15;;;;;;;43.30;25.27;;;;;;;;;;4996828;28;20073;-71
2023/01/20 13:23:41;;;;;;;51.05;26.48;;;;;;;;;;4994138;28;20018;-72
2023/01/20 13:26:07;;;;;;;44.38;26.02;;;;;;;;;;4994032;28;20029;-73
2023/01/20 13:28:33;;;;;;;48.88;26.70;;;;;;;;;;4992271;28;20023;-74
2023/01/20 13:31:00;;;;;;;46.17;25.23;;;;;;;;;;4994002;28;20026;-74
2023/01/20 13:33:29;;;;;;;52.17;26.67;;;;;;;;;;4994040;28;20018;-73
2023/01/20 13:35:58;;;;;;;46.75;26.40;;;;;;;;;;4992566;28;20030;-73
2023/01/20 13:38:29;;;;;;;49.65;26.05;;;;;;;;;;4993248;28;20050;-72
2023/01/20 13:41:01;;;;;;;44.60;25.30;;;;;;;;;;4994159;28;20050;-73
2023/01/20 13:43:27;;;;;;;51.67;27.65;;;;;;;;;;4993641;28;20496;-72
2023/01/20 13:46:03;;;;;;;57.47;30.30;;;;;;;;;;4993589;28;20034;-74
2023/01/20 13:48:30;;;;;;;46.85;26.17;;;;;;;;;;4993225;28;20022;-74
2023/01/20 13:51:15;;;;;;;52.15;27.30;;;;;;;;;;4992214;28;20419;-76
2023/01/20 13:53:41;;;;;;;48.65;26.58;;;;;;;;;;4993968;28;20019;-73
2023/01/20 13:56:26;;;;;;;48.97;27.35;;;;;;;;;;4992764;28;20027;-75
2023/01/20 13:58:52;;;;;;;48.33;26.30;;;;;;;;;;4993202;28;20238;-75
2023/01/20 14:01:18;;;;;;;46.15;26.65;;;;;;;;;;4993377;28;20442;-73
2023/01/20 14:04:00;;;;;;;47.45;27.50;;;;;;;;;;4992175;28;20034;-73
2023/01/20 14:06:27;;;;;;;51.78;27.52;;;;;;;;;;4992136;28;20026;-73
2023/01/20 14:08:53;;;;;;;46.15;28.17;;;;;;;;;;4993059;28;20426;-73
2023/01/20 14:11:20;;;;;;;45.00;27.50;;;;;;;;;;4992074;28;20026;-74
2023/01/20 14:14:06;;;;;;;59.83;31.00;;;;;;;;;;4993110;28;20023;-74
2023/01/20 14:16:34;;;;;;;50.80;28.30;;;;;;;;;;4990449;28;20029;-72
2023/01/20 14:19:01;;;;;;;58.05;30.00;;;;;;;;;;4991044;28;20045;-74
2023/01/20 14:21:29;;;;;;;51.10;28.50;;;;;;;;;;4991215;28;20026;-72
2023/01/20 14:23:55;;;;;;;54.13;28.85;;;;;;;;;;4990487;28;20046;-72
2023/01/20 14:26:25;;;;;;;53.05;29.08;;;;;;;;;;4988938;28;20784;-71
2023/01/20 14:28:55;;;;;;;54.78;27.58;;;;;;;;;;4990655;28;20025;-71
2023/01/20 14:31:39;;;;;;;48.90;28.73;;;;;;;;;;4992991;28;20101;-71
2023/01/20 14:34:20;;;;;;;54.08;28.27;;;;;;;;;;4991613;28;20385;-72
2023/01/20 14:36:46;;;;;;;;;;;;;;;;;;4992295;28;20062;-72
2023/01/20 14:39:18;;;;;;;55.40;30.33;;;;;;;;;;4993050;28;19960;-71